Time;durP1;ratioP1;P1;durP2;ratioP2;P2;SDS_P1;SDS_P2;PMS_P1;PMS_P2;Temp;Humidity;BMP_temperature;BMP_pressure;BME280_temperature;BME280_humidity;BME280_pressure;Samples;Min_cycle;Max_cycle;Signal;HPM_P1;HPM_P2
2023/09/03 00:00:46;;;;;;;1.50;1.20;;;22.20;74.40;;;;;;5093861;27;43581;-69
2023/09/03 00:03:14;;;;;;;1.17;1.17;;;22.30;74.20;;;;;;5092607;27;45789;-69
2023/09/03 00:05:49;;;;;;;1.00;1.00;;;22.30;74.20;;;;;;5099402;27;44969;-69
2023/09/03 00:08:18;;;;;;;1.10;1.10;;;22.20;75.00;;;;;;5103083;27;45636;-68
2023/09/03 00:10:49;;;;;;;1.10;1.10;;;22.10;74.70;;;;;;5106236;27;43605;-68
2023/09/03 00:13:17;;;;;;;1.00;1.00;;;22.10;74.90;;;;;;5104302;27;44925;-68
2023/09/03 00:15:45;;;;;;;1.00;1.00;;;22.10;74.90;;;;;;5092426;27;44879;-68
2023/09/03 00:18:14;;;;;;;1.00;1.00;;;22.00;74.80;;;;;;5103891;27;43394;-68
2023/09/03 00:20:43;;;;;;;1.10;1.10;;;22.00;75.10;;;;;;5090007;27;43569;-68
2023/09/03 00:23:11;;;;;;;1.10;1.10;;;22.00;75.60;;;;;;5103914;27;43840;-69
2023/09/03 00:25:40;;;;;;;1.00;1.00;;;22.00;75.30;;;;;;5097025;27;44681;-67
2023/09/03 00:28:08;;;;;;;1.70;1.10;;;22.10;75.10;;;;;;5104615;27;43538;-68
2023/09/03 00:30:36;;;;;;;1.10;1.10;;;22.10;75.00;;;;;;5094961;27;43565;-68
2023/09/03 00:33:06;;;;;;;1.10;1.10;;;22.10;74.90;;;;;;5103736;27;43829;-69
2023/09/03 00:35:34;;;;;;;1.10;1.10;;;22.00;75.30;;;;;;5104156;27;43448;-68
2023/09/03 00:38:02;;;;;;;1.13;1.13;;;22.00;75.20;;;;;;5088649;27;44136;-67
2023/09/03 00:40:31;;;;;;;0.90;0.90;;;22.00;75.10;;;;;;5103195;27;43968;-68
2023/09/03 00:43:01;;;;;;;0.90;0.90;;;22.00;75.10;;;;;;5088215;27;45469;-67
2023/09/03 00:45:29;;;;;;;0.90;0.90;;;21.90;75.10;;;;;;5091162;27;45643;-67
2023/09/03 00:47:57;;;;;;;1.07;1.07;;;21.90;75.70;;;;;;5108620;27;44126;-68
2023/09/03 00:50:25;;;;;;;1.20;1.20;;;22.00;75.50;;;;;;5089180;27;44525;-68
2023/09/03 00:52:53;;;;;;;1.10;1.10;;;22.00;75.80;;;;;;5091071;27;45640;-70
2023/09/03 00:55:21;;;;;;;1.60;1.10;;;22.20;74.70;;;;;;5097269;27;45068;-69
2023/09/03 00:57:49;;;;;;;1.00;1.00;;;22.20;74.30;;;;;;5093167;27;43441;-69
2023/09/03 01:00:19;;;;;;;0.90;0.90;;;22.30;74.30;;;;;;5096306;27;43511;-71
2023/09/03 01:02:47;;;;;;;0.93;0.93;;;22.20;74.20;;;;;;5108806;27;45684;-70
2023/09/03 01:05:15;;;;;;;0.93;0.93;;;22.10;74.30;;;;;;5098708;27;43423;-68
2023/09/03 01:07:44;;;;;;;1.00;1.00;;;22.10;75.00;;;;;;5103211;27;43409;-70
2023/09/03 01:10:12;;;;;;;1.00;1.00;;;22.10;75.10;;;;;;5096576;27;43621;-71
2023/09/03 01:12:43;;;;;;;1.00;1.00;;;22.00;75.00;;;;;;5101112;27;45665;-70
2023/09/03 01:15:14;;;;;;;0.80;0.80;;;22.00;75.10;;;;;;5095390;27;45487;-70
2023/09/03 01:17:46;;;;;;;0.83;0.83;;;21.90;75.20;;;;;;5098406;27;43836;-69
2023/09/03 01:20:16;;;;;;;0.93;0.93;;;21.90;75.60;;;;;;5106589;27;43474;-70
2023/09/03 01:23:04;;;;;;;1.10;1.10;;;21.90;75.50;;;;;;5105761;27;45300;-70
2023/09/03 01:25:42;;;;;;;0.90;0.90;;;21.90;75.50;;;;;;5092123;27;44758;-70
2023/09/03 01:28:21;;;;;;;1.10;1.10;;;21.90;75.40;;;;;;5113334;27;43409;-69
2023/09/03 01:30:49;;;;;;;1.00;1.00;;;21.90;76.00;;;;;;5105106;27;43472;-70
2023/09/03 01:33:18;;;;;;;1.00;1.00;;;21.90;75.80;;;;;;5103021;27;46102;-69
2023/09/03 01:35:47;;;;;;;1.10;1.10;;;22.00;75.40;;;;;;5099165;27;44694;-70
2023/09/03 01:38:15;;;;;;;1.07;1.07;;;22.10;74.90;;;;;;5106626;27;43421;-70
2023/09/03 01:40:43;;;;;;;1.00;1.00;;;22.20;74.50;;;;;;5099042;27;43383;-70
2023/09/03 01:43:11;;;;;;;1.60;1.00;;;22.20;74.40;;;;;;5105901;27;46086;-69
2023/09/03 01:45:44;;;;;;;0.90;0.90;;;22.20;74.30;;;;;;5108742;27;44761;-69
2023/09/03 01:48:15;;;;;;;1.03;1.03;;;22.10;74.40;;;;;;5108657;27;43429;-69
2023/09/03 01:50:44;;;;;;;2.00;1.10;;;22.10;75.00;;;;;;5102506;27;43550;-69
2023/09/03 01:53:15;;;;;;;1.00;1.00;;;22.10;75.20;;;;;;5110771;27;43915;-69
2023/09/03 01:55:43;;;;;;;1.00;1.00;;;22.00;75.10;;;;;;5098762;27;44751;-69
2023/09/03 01:58:11;;;;;;;1.00;1.00;;;22.00;75.10;;;;;;5103788;27;43815;-69
2023/09/03 02:00:40;;;;;;;1.03;1.03;;;21.90;75.30;;;;;;5104540;27;44072;-70
2023/09/03 02:03:08;;;;;;;1.20;1.20;;;21.90;75.50;;;;;;5094550;27;45770;-69
2023/09/03 02:05:37;;;;;;;0.90;0.90;;;21.90;75.50;;;;;;5099285;27;45051;-69
2023/09/03 02:08:07;;;;;;;1.00;1.00;;;21.90;75.40;;;;;;5112278;27;43405;-70
2023/09/03 02:10:35;;;;;;;1.10;1.10;;;21.90;75.40;;;;;;5096665;27;43418;-70
2023/09/03 02:13:03;;;;;;;1.20;1.20;;;21.80;75.80;;;;;;5106285;27;46236;-70
2023/09/03 02:15:31;;;;;;;0.87;0.87;;;21.90;75.90;;;;;;5099683;27;45027;-69
2023/09/03 02:18:01;;;;;;;1.00;1.00;;;22.00;75.60;;;;;;5091658;27;43596;-68
2023/09/03 02:20:29;;;;;;;1.00;1.00;;;22.10;75.00;;;;;;5100670;27;43922;-68
2023/09/03 02:22:57;;;;;;;1.10;1.10;;;22.30;74.60;;;;;;5094007;27;45963;-69
2023/09/03 02:25:25;;;;;;;1.00;1.00;;;22.30;74.20;;;;;;5093860;27;44706;-68
2023/09/03 02:27:54;;;;;;;1.00;1.00;;;22.30;74.20;;;;;;5099881;27;43805;-69
2023/09/03 02:30:22;;;;;;;0.90;0.90;;;22.20;74.20;;;;;;5108296;27;44069;-68
2023/09/03 02:32:50;;;;;;;1.10;1.10;;;22.20;74.50;;;;;;5103793;27;46447;-68
2023/09/03 02:35:19;;;;;;;0.90;0.90;;;22.10;74.90;;;;;;5107154;27;43526;-68
2023/09/03 02:37:49;;;;;;;0.90;0.90;;;22.10;74.90;;;;;;5105439;27;43489;-68
2023/09/03 02:40:19;;;;;;;0.90;0.90;;;22.10;75.10;;;;;;5098077;27;43550;-71
2023/09/03 02:42:47;;;;;;;1.03;1.03;;;22.00;74.90;;;;;;5101306;27;44407;-68
2023/09/03 02:45:15;;;;;;;1.00;1.00;;;22.00;75.40;;;;;;5090642;27;44711;-68
2023/09/03 02:47:43;;;;;;;1.00;1.00;;;21.90;75.40;;;;;;5092729;27;43455;-68
2023/09/03 02:50:11;;;;;;;1.00;1.00;;;22.00;75.40;;;;;;5092796;27;43559;-68
2023/09/03 02:52:40;;;;;;;0.93;0.93;;;21.90;75.40;;;;;;5095600;27;43806;-68
2023/09/03 02:55:10;;;;;;;0.90;0.90;;;21.90;75.40;;;;;;5094727;27;44711;-68
2023/09/03 02:57:38;;;;;;;0.90;0.90;;;21.90;75.90;;;;;;5098247;27;43390;-68
2023/09/03 03:00:08;;;;;;;0.90;0.90;;;22.00;75.70;;;;;;5104520;27;44045;-69
2023/09/03 03:02:36;;;;;;;0.80;0.80;;;22.10;75.30;;;;;;5095550;27;46126;-69
2023/09/03 03:05:05;;;;;;;0.90;0.90;;;22.20;74.70;;;;;;5087668;27;45081;-68
2023/09/03 03:07:36;;;;;;;1.00;1.00;;;22.30;74.30;;;;;;5100600;27;43513;-68
2023/09/03 03:10:06;;;;;;;0.90;0.90;;;22.30;74.10;;;;;;5099990;27;43973;-68
2023/09/03 03:12:34;;;;;;;1.00;1.00;;;22.30;74.20;;;;;;5096608;27;44600;-68
2023/09/03 03:15:03;;;;;;;1.40;1.30;;;22.20;74.30;;;;;;5093595;27;43953;-68
2023/09/03 03:17:31;;;;;;;3.27;1.30;;;22.10;74.80;;;;;;5091989;27;44377;-68
2023/09/03 03:19:59;;;;;;;2.97;2.07;;;22.10;74.90;;;;;;5094063;27;43526;-68
2023/09/03 03:22:27;;;;;;;2.13;1.90;;;22.00;74.80;;;;;;5098131;27;45308;-68
2023/09/03 03:24:55;;;;;;;6.03;2.37;;;22.10;75.00;;;;;;5088181;27;44742;-68
2023/09/03 03:27:27;;;;;;;7.00;3.23;;;22.00;75.20;;;;;;5090044;27;43454;-68
2023/09/03 03:29:56;;;;;;;7.60;3.63;;;22.00;75.50;;;;;;5099731;27;43522;-68
2023/09/03 03:32:24;;;;;;;4.37;2.97;;;22.00;75.50;;;;;;5099358;27;44793;-70
2023/09/03 03:34:56;;;;;;;3.50;2.90;;;21.90;75.40;;;;;;5096399;27;43882;-69
2023/09/03 03:37:24;;;;;;;6.40;3.27;;;21.90;75.40;;;;;;5105697;27;43442;-68
2023/09/03 03:39:53;;;;;;;5.87;3.57;;;21.90;75.80;;;;;;5098497;27;43459;-69
2023/09/03 03:42:22;;;;;;;7.70;3.70;;;21.90;75.70;;;;;;5106694;27;43679;-68
2023/09/03 03:44:51;;;;;;;6.77;3.40;;;21.90;75.70;;;;;;5097563;27;45124;-72
2023/09/03 03:47:19;;;;;;;6.93;3.37;;;21.90;75.50;;;;;;5093859;27;44354;-69
2023/09/03 03:49:48;;;;;;;5.23;3.60;;;21.90;75.60;;;;;;5099077;27;43520;-71
2023/09/03 03:52:17;;;;;;;8.03;3.90;;;21.90;76.00;;;;;;5090815;27;45249;-71
2023/09/03 03:54:45;;;;;;;9.60;4.30;;;22.00;75.80;;;;;;5095791;27;45153;-70
2023/09/03 03:57:13;;;;;;;10.40;4.23;;;22.10;75.30;;;;;;5096001;27;43489;-71
2023/09/03 03:59:41;;;;;;;9.63;4.13;;;22.20;75.40;;;;;;5103292;27;43624;-71
2023/09/03 04:02:11;;;;;;;5.83;4.03;;;22.40;74.30;;;;;;5092794;27;45743;-71
2023/09/03 04:04:39;;;;;;;6.60;3.90;;;22.40;74.00;;;;;;5103035;27;45269;-71
2023/09/03 04:07:07;;;;;;;4.87;3.60;;;22.40;74.10;;;;;;5092659;27;43927;-71
2023/09/03 04:09:37;;;;;;;8.57;4.20;;;22.30;74.20;;;;;;5098115;27;43848;-71
2023/09/03 04:12:06;;;;;;;8.57;4.27;;;22.20;74.60;;;;;;5106385;27;43610;-70
2023/09/03 04:14:35;;;;;;;7.53;4.30;;;22.20;74.80;;;;;;5104388;27;43487;-71
2023/09/03 04:17:04;;;;;;;7.07;4.20;;;22.20;74.90;;;;;;5091382;27;43456;-70
2023/09/03 04:19:34;;;;;;;6.73;3.87;;;22.10;74.70;;;;;;5093694;27;43498;-71
2023/09/03 04:22:01;;;;;;;8.47;4.33;;;22.10;74.90;;;;;;5097386;27;45768;-71
2023/09/03 04:24:30;;;;;;;7.60;4.70;;;22.00;75.30;;;;;;5101646;27;43788;-71
2023/09/03 04:26:59;;;;;;;7.70;4.33;;;22.10;75.30;;;;;;5096072;27;43376;-70
2023/09/03 04:29:27;;;;;;;6.83;3.93;;;22.10;74.90;;;;;;5100127;27;43435;-71
2023/09/03 04:31:55;;;;;;;6.27;4.20;;;22.20;74.80;;;;;;5091885;27;44867;-70
2023/09/03 04:34:23;;;;;;;7.73;4.47;;;22.10;74.70;;;;;;5097114;27;45693;-71
2023/09/03 04:36:53;;;;;;;7.57;4.37;;;22.10;75.00;;;;;;5100131;27;43515;-70
2023/09/03 04:39:22;;;;;;;7.03;4.50;;;22.10;75.10;;;;;;5097177;27;43411;-73
2023/09/03 04:41:50;;;;;;;6.70;4.27;;;22.10;75.10;;;;;;5095003;27;46124;-72
2023/09/03 04:44:18;;;;;;;5.50;4.03;;;22.10;75.00;;;;;;5096299;27;44136;-71
2023/09/03 04:46:49;;;;;;;7.17;4.50;;;22.00;74.80;;;;;;5097811;27;43360;-71
2023/09/03 04:49:20;;;;;;;7.30;4.40;;;22.00;75.40;;;;;;5095489;27;44375;-72
2023/09/03 04:51:48;;;;;;;7.93;4.43;;;22.00;75.50;;;;;;5092099;27;45388;-71
2023/09/03 04:54:20;;;;;;;5.87;4.00;;;22.00;75.40;;;;;;5101299;27;44849;-67
2023/09/03 04:56:49;;;;;;;5.90;4.47;;;22.00;75.30;;;;;;5097680;27;44015;-69
2023/09/03 04:59:17;;;;;;;8.80;4.80;;;22.00;75.70;;;;;;5100440;27;43621;-69
2023/09/03 05:01:46;;;;;;;8.77;4.97;;;21.90;75.60;;;;;;5096414;27;45430;-70
2023/09/03 05:04:14;;;;;;;7.37;4.37;;;22.10;75.50;;;;;;5098085;27;44857;-70
2023/09/03 05:06:42;;;;;;;6.90;4.50;;;22.10;75.00;;;;;;5104752;27;43918;-70
2023/09/03 05:09:11;;;;;;;7.00;4.83;;;22.30;74.40;;;;;;5105893;27;44082;-70
2023/09/03 05:11:42;;;;;;;7.90;4.40;;;22.40;74.10;;;;;;5104016;27;45804;-69
2023/09/03 05:14:10;;;;;;;8.47;4.77;;;22.40;74.00;;;;;;5124990;27;44409;-70
2023/09/03 05:16:38;;;;;;;6.43;4.63;;;22.30;74.10;;;;;;5103861;27;43978;-69
2023/09/03 05:19:07;;;;;;;7.07;4.40;;;22.20;74.20;;;;;;5100838;27;43565;-70
2023/09/03 05:21:35;;;;;;;8.53;5.13;;;22.20;74.70;;;;;;5099866;27;46720;-70
2023/09/03 05:24:04;;;;;;;6.03;4.57;;;22.20;74.80;;;;;;5105360;27;44728;-70
2023/09/03 05:26:32;;;;;;;7.70;5.10;;;22.10;74.80;;;;;;5112447;27;43454;-69
2023/09/03 05:29:02;;;;;;;8.30;5.03;;;22.10;74.80;;;;;;5106676;27;43530;-69
2023/09/03 05:31:31;;;;;;;8.90;4.67;;;22.10;75.40;;;;;;5104353;27;46146;-69
2023/09/03 05:34:00;;;;;;;6.13;4.30;;;22.00;75.30;;;;;;5111237;27;45195;-69
2023/09/03 05:36:28;;;;;;;6.73;4.53;;;22.00;75.30;;;;;;5097652;27;43890;-69
2023/09/03 05:38:57;;;;;;;9.23;4.80;;;22.00;75.10;;;;;;5103702;27;43509;-69
2023/09/03 05:41:25;;;;;;;8.47;4.73;;;22.00;75.20;;;;;;5123232;27;44051;-69
2023/09/03 05:43:54;;;;;;;8.03;4.77;;;21.90;75.70;;;;;;5108329;27;44853;-68
2023/09/03 05:46:23;;;;;;;6.47;4.37;;;22.00;75.70;;;;;;5096485;27;43560;-70
2023/09/03 05:48:52;;;;;;;8.97;5.27;;;22.10;75.20;;;;;;5104626;27;43541;-70
2023/09/03 05:51:20;;;;;;;8.47;4.90;;;22.30;74.70;;;;;;5103157;27;45529;-70
2023/09/03 05:53:48;;;;;;;6.63;4.37;;;22.30;74.30;;;;;;5107310;27;44614;-70
2023/09/03 05:56:19;;;;;;;6.13;4.90;;;22.30;74.90;;;;;;5101808;27;43971;-69
2023/09/03 05:58:48;;;;;;;4.57;4.17;;;22.20;74.20;;;;;;5099078;27;44399;-69
2023/09/03 06:01:18;;;;;;;5.87;4.17;;;22.20;74.40;;;;;;5109296;27;45302;-70
2023/09/03 06:03:48;;;;;;;5.87;4.43;;;22.10;75.60;;;;;;5098029;27;43967;-70
2023/09/03 06:06:16;;;;;;;8.20;4.77;;;22.10;75.00;;;;;;5096675;27;43435;-69
2023/09/03 06:08:44;;;;;;;6.13;4.50;;;22.10;75.00;;;;;;5106733;27;43478;-70
2023/09/03 06:11:12;;;;;;;4.67;4.10;;;22.10;75.10;;;;;;5105384;27;45613;-69
2023/09/03 06:13:40;;;;;;;6.80;4.70;;;22.00;75.10;;;;;;5109154;27;43404;-69
2023/09/03 06:16:08;;;;;;;6.80;4.60;;;22.00;75.50;;;;;;5101890;27;43458;-66
2023/09/03 06:18:36;;;;;;;7.07;4.87;;;22.00;75.40;;;;;;5108352;27;44810;-69
2023/09/03 06:21:06;;;;;;;6.17;4.00;;;22.00;75.40;;;;;;5107706;27;44228;-66
2023/09/03 06:23:34;;;;;;;8.33;5.00;;;22.00;75.30;;;;;;5104821;27;43561;-66
2023/09/03 06:26:02;;;;;;;5.67;4.53;;;21.90;75.50;;;;;;5098808;27;43609;-66
2023/09/03 06:28:31;;;;;;;6.80;4.67;;;21.90;75.80;;;;;;5106643;27;43580;-66
2023/09/03 06:31:01;;;;;;;5.73;4.27;;;22.00;75.60;;;;;;5105844;27;45409;-66
2023/09/03 06:33:33;;;;;;;6.40;4.47;;;22.10;75.10;;;;;;5105513;27;43592;-67
2023/09/03 06:36:01;;;;;;;7.10;4.33;;;22.30;74.70;;;;;;5093485;27;43862;-66
2023/09/03 06:38:30;;;;;;;6.37;4.47;;;22.40;74.30;;;;;;5109468;27;43577;-66
2023/09/03 06:40:58;;;;;;;4.60;4.13;;;22.40;74.80;;;;;;5105723;27;43612;-66
2023/09/03 06:43:26;;;;;;;5.90;4.20;;;22.30;74.10;;;;;;5106691;27;43703;-66
2023/09/03 06:45:54;;;;;;;5.70;4.47;;;22.20;74.30;;;;;;5103919;27;43503;-66
2023/09/03 06:48:22;;;;;;;5.60;4.20;;;22.20;74.80;;;;;;5106594;27;43441;-66
2023/09/03 06:50:52;;;;;;;7.83;4.40;;;22.10;74.80;;;;;;5101792;27;43610;-65
2023/09/03 06:53:20;;;;;;;5.97;4.53;;;22.10;74.80;;;;;;5103760;27;43503;-66
2023/09/03 06:55:50;;;;;;;6.17;4.57;;;22.10;75.00;;;;;;5098402;27;43530;-66
2023/09/03 06:58:18;;;;;;;4.33;3.93;;;22.00;75.10;;;;;;5103265;27;43416;-68
2023/09/03 07:00:46;;;;;;;4.93;4.33;;;22.00;75.40;;;;;;5094311;27;46031;-67
2023/09/03 07:03:17;;;;;;;4.70;4.03;;;22.10;75.30;;;;;;5105105;27;43906;-66
2023/09/03 07:05:46;;;;;;;5.87;4.30;;;22.00;74.90;;;;;;5105005;27;43492;-68
2023/09/03 07:08:14;;;;;;;5.37;3.90;;;22.10;74.90;;;;;;5090172;27;44447;-66
2023/09/03 07:10:42;;;;;;;5.17;4.67;;;22.10;75.10;;;;;;5104555;27;43709;-66
2023/09/03 07:13:11;;;;;;;4.70;4.13;;;22.10;75.20;;;;;;5103353;27;43409;-66
2023/09/03 07:15:39;;;;;;;5.40;4.27;;;22.00;75.00;;;;;;5096246;27;43471;-68
2023/09/03 07:18:07;;;;;;;4.93;4.43;;;22.00;75.10;;;;;;5107939;27;43442;-68
2023/09/03 07:20:36;;;;;;;4.30;3.90;;;22.00;75.80;;;;;;5103603;27;43605;-68
2023/09/03 07:23:04;;;;;;;4.80;4.20;;;21.90;75.40;;;;;;5108892;27;43387;-68
2023/09/03 07:25:34;;;;;;;5.63;4.50;;;22.00;75.60;;;;;;5109363;27;43382;-69
2023/09/03 07:28:02;;;;;;;4.70;4.03;;;22.10;75.30;;;;;;5107127;27;43545;-69
2023/09/03 07:30:31;;;;;;;4.77;4.30;;;22.10;74.80;;;;;;5106871;27;43621;-70
2023/09/03 07:32:59;;;;;;;4.50;3.83;;;22.30;74.40;;;;;;5106143;27;43423;-69
2023/09/03 07:35:30;;;;;;;5.53;4.20;;;22.30;74.30;;;;;;5106588;27;43764;-68
2023/09/03 07:37:58;;;;;;;4.80;3.90;;;22.20;74.30;;;;;;5109612;27;43406;-67
2023/09/03 07:40:28;;;;;;;4.20;3.80;;;22.20;74.40;;;;;;5104673;27;43632;-68
2023/09/03 07:42:56;;;;;;;5.23;4.00;;;22.10;74.70;;;;;;5097273;27;44776;-67
2023/09/03 07:45:24;;;;;;;4.40;4.03;;;22.10;75.10;;;;;;5093553;27;43466;-67
2023/09/03 07:47:54;;;;;;;4.03;3.63;;;22.10;75.00;;;;;;5103257;27;43920;-69
2023/09/03 07:50:22;;;;;;;3.90;3.60;;;22.00;75.10;;;;;;5111744;27;44097;-67
2023/09/03 07:52:50;;;;;;;3.90;3.50;;;22.00;75.10;;;;;;5097197;27;43428;-69
2023/09/03 07:55:18;;;;;;;4.60;4.20;;;21.90;75.50;;;;;;5095125;27;43526;-69
2023/09/03 07:57:46;;;;;;;4.57;3.93;;;21.90;75.50;;;;;;5102844;27;43449;-68
2023/09/03 08:00:14;;;;;;;4.00;3.60;;;22.00;75.20;;;;;;5097216;27;46077;-69
2023/09/03 08:02:43;;;;;;;5.10;3.80;;;22.00;75.00;;;;;;5097737;27;43536;-70
2023/09/03 08:05:12;;;;;;;5.13;4.10;;;22.10;75.70;;;;;;5099880;27;43473;-68
2023/09/03 08:07:41;;;;;;;4.13;3.83;;;22.00;75.10;;;;;;5103112;27;43470;-68
2023/09/03 08:10:10;;;;;;;3.80;3.50;;;22.00;75.30;;;;;;5105183;27;44491;-71
2023/09/03 08:12:38;;;;;;;3.77;3.43;;;22.00;75.30;;;;;;5111615;27;44838;-68
2023/09/03 08:15:07;;;;;;;3.63;3.40;;;22.00;75.20;;;;;;5103643;27;43434;-68
2023/09/03 08:17:35;;;;;;;3.90;3.60;;;22.00;75.20;;;;;;5094851;27;43506;-68
2023/09/03 08:20:03;;;;;;;4.23;3.93;;;21.90;75.50;;;;;;5098844;27;44838;-68
2023/09/03 08:22:36;;;;;;;4.03;3.63;;;21.90;75.70;;;;;;5102296;27;43906;-68
2023/09/03 08:25:04;;;;;;;4.00;3.63;;;22.00;75.40;;;;;;5097127;27;43458;-69
2023/09/03 08:27:32;;;;;;;3.83;3.50;;;22.10;75.00;;;;;;5100289;27;43581;-68
2023/09/03 08:30:00;;;;;;;3.83;3.60;;;22.20;74.60;;;;;;5105135;27;46290;-69
2023/09/03 08:32:29;;;;;;;3.67;3.43;;;22.30;74.40;;;;;;5113594;27;43419;-71
2023/09/03 08:34:58;;;;;;;3.30;3.10;;;22.20;74.40;;;;;;5107185;27;43919;-69
2023/09/03 08:37:28;;;;;;;3.73;3.43;;;22.20;74.50;;;;;;5110779;27;43434;-69
2023/09/03 08:39:58;;;;;;;3.57;3.33;;;22.10;74.60;;;;;;5107003;27;44001;-69
2023/09/03 08:42:26;;;;;;;3.60;3.33;;;22.10;75.20;;;;;;5108479;27;43504;-70
2023/09/03 08:44:56;;;;;;;3.37;3.17;;;22.10;75.20;;;;;;5108129;27;43481;-69
2023/09/03 08:47:24;;;;;;;3.93;3.60;;;22.00;75.20;;;;;;5112365;27;43996;-69
2023/09/03 08:49:53;;;;;;;3.37;3.17;;;22.00;75.20;;;;;;5101199;27;46131;-69
2023/09/03 08:52:21;;;;;;;3.27;3.00;;;21.90;75.50;;;;;;5102210;27;45037;-69
2023/09/03 08:54:49;;;;;;;3.47;3.27;;;21.90;75.80;;;;;;5105071;27;43510;-68
2023/09/03 08:57:18;;;;;;;2.97;2.77;;;21.90;75.60;;;;;;5110245;27;43415;-69
2023/09/03 08:59:46;;;;;;;3.87;3.23;;;21.90;75.50;;;;;;5104159;27;43598;-69
2023/09/03 09:02:14;;;;;;;3.43;3.20;;;21.90;75.50;;;;;;5104139;27;44231;-69
2023/09/03 09:04:42;;;;;;;3.13;2.97;;;21.80;75.90;;;;;;5107914;27;44271;-69
2023/09/03 09:07:10;;;;;;;3.00;2.90;;;21.90;75.90;;;;;;5103017;27;43548;-69
2023/09/03 09:09:38;;;;;;;3.27;3.07;;;22.00;75.60;;;;;;5106694;27;43615;-68
2023/09/03 09:12:11;;;;;;;3.40;3.20;;;22.10;75.20;;;;;;5097913;27;44732;-70
2023/09/03 09:14:43;;;;;;;2.73;2.63;;;22.30;74.70;;;;;;5100254;27;43500;-69
2023/09/03 09:17:13;;;;;;;3.30;3.10;;;22.30;74.40;;;;;;5109331;27;43463;-69
2023/09/03 09:19:41;;;;;;;3.33;3.13;;;22.30;74.40;;;;;;5107797;27;44422;-68
2023/09/03 09:22:09;;;;;;;2.77;2.57;;;22.20;74.40;;;;;;5106454;27;43483;-70
2023/09/03 09:24:43;;;;;;;3.73;3.43;;;22.10;75.40;;;;;;5096206;27;43592;-69
2023/09/03 09:27:15;;;;;;;3.07;2.87;;;22.10;75.10;;;;;;5104773;27;43503;-68
2023/09/03 09:29:45;;;;;;;2.80;2.60;;;22.10;75.20;;;;;;5096008;27;45377;-69
2023/09/03 09:32:17;;;;;;;3.17;2.97;;;22.00;75.10;;;;;;5097561;27;44728;-69
2023/09/03 09:34:45;;;;;;;2.63;2.53;;;22.00;75.90;;;;;;5113128;27;43382;-68
2023/09/03 09:37:14;;;;;;;2.90;2.80;;;21.90;75.40;;;;;;5106889;27;43428;-69
2023/09/03 09:39:45;;;;;;;3.20;3.00;;;21.90;75.70;;;;;;5101075;27;45366;-68
2023/09/03 09:42:18;;;;;;;2.80;2.60;;;22.00;75.70;;;;;;5101706;27;45136;-68
2023/09/03 09:44:58;;;;;;;3.13;2.93;;;21.90;75.50;;;;;;5106793;27;43581;-70
2023/09/03 09:47:27;;;;;;;2.80;2.70;;;21.90;75.50;;;;;;5116304;27;43401;-70
2023/09/03 09:49:55;;;;;;;2.90;2.70;;;21.90;76.10;;;;;;5098717;27;45651;-69
2023/09/03 09:52:23;;;;;;;2.80;2.70;;;21.90;75.90;;;;;;5105245;27;43451;-68
2023/09/03 09:54:51;;;;;;;2.90;2.70;;;22.10;75.70;;;;;;5114237;27;43423;-70
2023/09/03 09:57:22;;;;;;;2.67;2.57;;;22.20;75.20;;;;;;5115442;27;43488;-69
2023/09/03 09:59:52;;;;;;;2.63;2.33;;;22.30;74.70;;;;;;5096447;27;45334;-69
2023/09/03 10:02:22;;;;;;;2.93;2.73;;;22.30;74.40;;;;;;5108686;27;43938;-70
2023/09/03 10:04:51;;;;;;;2.57;2.47;;;22.30;74.40;;;;;;5103795;27;43534;-69
2023/09/03 10:07:21;;;;;;;2.83;2.63;;;22.20;74.50;;;;;;5110145;27;43461;-68
2023/09/03 10:09:49;;;;;;;2.80;2.70;;;22.20;74.90;;;;;;5104632;27;46059;-68
2023/09/03 10:12:17;;;;;;;2.33;2.23;;;22.10;75.10;;;;;;5100794;27;44580;-70
2023/09/03 10:14:45;;;;;;;2.70;2.60;;;22.10;75.20;;;;;;5106805;27;43475;-71
2023/09/03 10:17:13;;;;;;;2.73;2.63;;;22.10;75.20;;;;;;5105347;27;43560;-70
2023/09/03 10:19:58;;;;;;;2.73;2.53;;;22.10;75.30;;;;;;5114579;27;43705;-70
2023/09/03 10:22:26;;;;;;;2.57;2.47;;;22.00;75.80;;;;;;5105894;27;43760;-69
2023/09/03 10:25:01;;;;;;;2.90;2.80;;;22.00;75.70;;;;;;5101262;27;44078;-70
2023/09/03 10:27:30;;;;;;;2.50;2.40;;;22.10;75.40;;;;;;5101923;27;43452;-69
2023/09/03 10:29:59;;;;;;;2.57;2.33;;;22.20;75.10;;;;;;5108360;27;43626;-69
2023/09/03 10:32:27;;;;;;;2.53;2.43;;;22.20;75.00;;;;;;5111581;27;43443;-71
2023/09/03 10:34:57;;;;;;;2.47;2.37;;;22.20;75.10;;;;;;5112255;27;43353;-71
2023/09/03 10:37:36;;;;;;;2.50;2.40;;;22.10;75.90;;;;;;5106059;27;43473;-69
2023/09/03 10:40:17;;;;;;;2.50;2.40;;;22.10;75.10;;;;;;5102051;27;45621;-69
2023/09/03 10:42:45;;;;;;;2.40;2.20;;;22.10;75.20;;;;;;5111432;27;43829;-68
2023/09/03 10:45:14;;;;;;;2.97;2.77;;;22.10;75.30;;;;;;5103397;27;43370;-70
2023/09/03 10:48:03;;;;;;;2.80;2.70;;;22.00;75.60;;;;;;5103322;27;43561;-69
2023/09/03 10:50:50;;;;;;;2.67;2.57;;;22.10;75.80;;;;;;5097245;27;44398;-69
2023/09/03 10:53:34;;;;;;;2.43;2.33;;;22.00;75.60;;;;;;5108133;27;43970;-68
2023/09/03 10:56:09;;;;;;;3.10;2.90;;;22.00;75.60;;;;;;5102884;27;43590;-65
2023/09/03 10:58:53;;;;;;;2.60;2.50;;;22.00;76.00;;;;;;5106115;27;43577;-65
2023/09/03 11:01:22;;;;;;;3.17;2.97;;;22.00;76.00;;;;;;5104139;27;43854;-65
2023/09/03 11:03:52;;;;;;;2.90;2.80;;;22.00;75.90;;;;;;5103619;27;44167;-65
2023/09/03 11:06:21;;;;;;;2.30;2.20;;;22.00;75.80;;;;;;5100855;27;43453;-66
2023/09/03 11:09:14;;;;;;;2.63;2.53;;;22.00;75.90;;;;;;5102615;27;43489;-67
2023/09/03 11:11:44;;;;;;;2.90;2.70;;;22.00;76.30;;;;;;5102531;27;43869;-67
2023/09/03 11:14:12;;;;;;;2.80;2.60;;;22.00;76.20;;;;;;5103608;27;43397;-64
2023/09/03 11:16:40;;;;;;;2.67;2.53;;;22.10;75.90;;;;;;5105350;27;43805;-66
2023/09/03 11:19:08;;;;;;;2.43;2.33;;;22.20;75.40;;;;;;5098123;27;43490;-68
2023/09/03 11:21:38;;;;;;;2.90;2.80;;;22.30;75.50;;;;;;5095978;27;45677;-66
2023/09/03 11:24:09;;;;;;;2.30;2.20;;;22.40;74.60;;;;;;5092472;27;43793;-67
2023/09/03 11:26:37;;;;;;;2.57;2.47;;;22.40;74.60;;;;;;5104043;27;43425;-66
2023/09/03 11:29:05;;;;;;;2.50;2.40;;;22.30;75.40;;;;;;5101022;27;43405;-66
2023/09/03 11:31:33;;;;;;;2.50;2.40;;;22.30;75.10;;;;;;5101727;27;43611;-66
2023/09/03 11:34:01;;;;;;;2.50;2.40;;;22.20;75.20;;;;;;5094511;27;44948;-66
2023/09/03 11:36:29;;;;;;;2.50;2.40;;;22.20;75.20;;;;;;5094294;27;43576;-65
2023/09/03 11:38:59;;;;;;;2.50;2.40;;;22.20;75.40;;;;;;5102843;27;43477;-66
2023/09/03 11:41:27;;;;;;;2.37;2.30;;;22.10;75.40;;;;;;5103594;27;44341;-66
2023/09/03 11:43:55;;;;;;;2.60;2.40;;;22.10;75.80;;;;;;5103292;27;43476;-65
2023/09/03 11:46:23;;;;;;;2.10;2.00;;;22.10;76.00;;;;;;5091902;27;44237;-66
2023/09/03 11:48:53;;;;;;;2.50;2.40;;;22.10;75.90;;;;;;5102577;27;44277;-66
2023/09/03 11:51:24;;;;;;;2.47;2.37;;;22.00;75.80;;;;;;5099631;27;45747;-65
2023/09/03 11:53:56;;;;;;;2.40;2.30;;;22.00;75.80;;;;;;5102404;27;44638;-65
2023/09/03 11:56:25;;;;;;;2.30;2.20;;;22.00;76.20;;;;;;5103177;27;43375;-70
2023/09/03 11:58:56;;;;;;;2.87;2.67;;;22.10;76.20;;;;;;5094520;27;43863;-72
2023/09/03 12:01:24;;;;;;;2.30;2.20;;;22.20;75.90;;;;;;5105398;27;43990;-71
2023/09/03 12:03:52;;;;;;;2.30;2.20;;;22.30;75.40;;;;;;5107070;27;43512;-70
2023/09/03 12:06:20;;;;;;;2.00;2.00;;;22.40;75.00;;;;;;5103934;27;44104;-71
2023/09/03 12:08:49;;;;;;;2.00;2.00;;;22.40;74.60;;;;;;5094102;27;43529;-71
2023/09/03 12:11:17;;;;;;;2.13;2.13;;;22.40;74.70;;;;;;5103131;27;43706;-72
2023/09/03 12:13:46;;;;;;;2.20;2.10;;;22.40;74.90;;;;;;5103423;27;44062;-71
2023/09/03 12:16:15;;;;;;;2.53;2.43;;;22.30;75.30;;;;;;5103180;27;44106;-71
2023/09/03 12:18:55;;;;;;;2.20;2.10;;;22.20;75.30;;;;;;5103784;27;43391;-71
2023/09/03 12:21:32;;;;;;;2.23;2.10;;;22.20;75.40;;;;;;5100731;27;44543;-71
2023/09/03 12:24:02;;;;;;;4.60;1.93;;;22.20;75.40;;;;;;5101389;27;43392;-71
2023/09/03 12:26:30;;;;;;;2.13;2.03;;;22.10;75.40;;;;;;5102265;27;43454;-71
2023/09/03 12:29:01;;;;;;;1.97;1.87;;;22.10;75.90;;;;;;5094955;27;43536;-72
2023/09/03 12:31:41;;;;;;;2.10;2.00;;;22.10;75.90;;;;;;5093978;27;45706;-70
2023/09/03 12:34:10;;;;;;;2.10;2.00;;;22.10;75.80;;;;;;5107265;27;44121;-71
2023/09/03 12:36:53;;;;;;;2.30;2.17;;;22.10;75.70;;;;;;5102315;27;43819;-70
2023/09/03 12:39:29;;;;;;;2.10;2.00;;;22.00;75.80;;;;;;5096650;27;44118;-72
2023/09/03 12:41:57;;;;;;;3.53;2.10;;;22.00;76.10;;;;;;5103148;27;44952;-72
2023/09/03 12:44:28;;;;;;;2.20;2.10;;;22.10;75.90;;;;;;5103951;27;43394;-70
2023/09/03 12:46:56;;;;;;;2.47;1.90;;;22.20;75.60;;;;;;5096524;27;43533;-71
2023/09/03 12:49:27;;;;;;;2.50;2.20;;;22.30;75.10;;;;;;5099836;27;43463;-72
2023/09/03 12:51:56;;;;;;;2.10;2.00;;;22.40;74.90;;;;;;5102743;27;43728;-72
2023/09/03 12:54:27;;;;;;;2.03;2.00;;;22.30;74.80;;;;;;5092831;27;44561;-71
2023/09/03 12:56:59;;;;;;;1.97;1.90;;;22.30;74.90;;;;;;5089482;27;44250;-71
2023/09/03 12:59:30;;;;;;;3.77;2.10;;;22.30;75.20;;;;;;5098938;27;43501;-71